KLM4643 EDDB-EDDM
Flight info
| Callsign | KLM4643 |
|---|---|
| Flight time | N/A |
| Altitude | 23000 |
| Route | EDDB ARSA4B BET01B ILS 26L VIA OTT EDDM |
| Aircraft | A21N/M-S/L |
Departure
| Time | 2026-05-05 19:05 |
|---|---|
| Airport | Berlin Brandenburg Airport (EDDB) |
Arrival
| Time | N/A |
|---|---|
| Airport | Munich Airport (EDDM) |
| Time | Latitude | Longitude | Altitude | Speed | Heading |
|---|---|---|---|---|---|
| 2026-05-05 18:25 | 52.36753 | 13.50566 | 162 ft | 0 kts | 159° |
| 2026-05-05 18:55 | 52.36754 | 13.50566 | 162 ft | 2 kts | 159° |
| 2026-05-05 18:55 | 52.36768 | 13.50557 | 162 ft | 2 kts | 159° |
| 2026-05-05 18:56 | 52.36784 | 13.50547 | 162 ft | 2 kts | 159° |
| 2026-05-05 18:56 | 52.36799 | 13.50539 | 162 ft | 2 kts | 183° |
| 2026-05-05 18:56 | 52.36814 | 13.50549 | 162 ft | 2 kts | 241° |
| 2026-05-05 18:56 | 52.36814 | 13.50550 | 162 ft | 0 kts | 244° |
| 2026-05-05 18:58 | 52.36814 | 13.50530 | 162 ft | 4 kts | 270° |
| 2026-05-05 18:58 | 52.36805 | 13.50458 | 162 ft | 9 kts | 248° |
| 2026-05-05 18:59 | 52.36780 | 13.50356 | 162 ft | 10 kts | 249° |
| 2026-05-05 18:59 | 52.36747 | 13.50217 | 162 ft | 15 kts | 248° |
| 2026-05-05 18:59 | 52.36730 | 13.50100 | 162 ft | 2 kts | 284° |
| 2026-05-05 18:59 | 52.36737 | 13.50077 | 162 ft | 0 kts | 307° |
| 2026-05-05 19:01 | 52.36738 | 13.50076 | 162 ft | 1 kts | 307° |
| 2026-05-05 19:01 | 52.36757 | 13.50048 | 162 ft | 6 kts | 320° |
| 2026-05-05 19:01 | 52.36780 | 13.49963 | 162 ft | 11 kts | 271° |
| 2026-05-05 19:02 | 52.36751 | 13.49822 | 162 ft | 17 kts | 249° |
| 2026-05-05 19:02 | 52.36698 | 13.49598 | 162 ft | 24 kts | 249° |
| 2026-05-05 19:02 | 52.36638 | 13.49346 | 162 ft | 24 kts | 248° |
| 2026-05-05 19:02 | 52.36574 | 13.49075 | 162 ft | 27 kts | 249° |
| 2026-05-05 19:03 | 52.36506 | 13.48789 | 161 ft | 23 kts | 249° |
| 2026-05-05 19:03 | 52.36451 | 13.48561 | 161 ft | 14 kts | 248° |
| 2026-05-05 19:03 | 52.36445 | 13.48434 | 161 ft | 8 kts | 307° |
| 2026-05-05 19:03 | 52.36509 | 13.48376 | 161 ft | 15 kts | 339° |
| 2026-05-05 19:04 | 52.36638 | 13.48297 | 157 ft | 24 kts | 343° |
| 2026-05-05 19:04 | 52.36747 | 13.48408 | 155 ft | 20 kts | 70° |
| 2026-05-05 19:04 | 52.36877 | 13.48950 | 155 ft | 98 kts | 68° |
| 2026-05-05 19:04 | 52.37243 | 13.50499 | 159 ft | 187 kts | 69° |
| 2026-05-05 19:05 | 52.37757 | 13.52680 | 666 ft | 218 kts | 68° |
| 2026-05-05 19:05 | 52.38322 | 13.55125 | 1427 ft | 232 kts | 69° |
| 2026-05-05 19:05 | 52.38881 | 13.57525 | 1985 ft | 222 kts | 68° |
| 2026-05-05 19:05 | 52.39437 | 13.59849 | 2462 ft | 217 kts | 68° |
| 2026-05-05 19:06 | 52.40005 | 13.62116 | 2920 ft | 213 kts | 67° |
| 2026-05-05 19:06 | 52.40576 | 13.64367 | 3288 ft | 215 kts | 67° |
| 2026-05-05 19:06 | 52.41141 | 13.66633 | 3666 ft | 215 kts | 68° |
| 2026-05-05 19:06 | 52.41697 | 13.68899 | 4097 ft | 214 kts | 68° |
| 2026-05-05 19:07 | 52.42244 | 13.71163 | 4515 ft | 215 kts | 69° |
| 2026-05-05 19:07 | 52.42803 | 13.73431 | 4932 ft | 219 kts | 66° |
| 2026-05-05 19:07 | 52.43448 | 13.75712 | 5363 ft | 222 kts | 64° |
| 2026-05-05 19:07 | 52.44179 | 13.77967 | 5803 ft | 225 kts | 63° |
| 2026-05-05 19:08 | 52.44817 | 13.80324 | 6251 ft | 228 kts | 66° |
| 2026-05-05 19:08 | 52.45462 | 13.82739 | 6672 ft | 234 kts | 66° |
| 2026-05-05 19:08 | 52.46130 | 13.85315 | 6744 ft | 259 kts | 66° |
| 2026-05-05 19:08 | 52.46870 | 13.88163 | 6781 ft | 282 kts | 66° |
| 2026-05-05 19:09 | 52.47672 | 13.91228 | 6834 ft | 303 kts | 66° |
| 2026-05-05 19:09 | 52.48521 | 13.94498 | 6894 ft | 320 kts | 69° |
| 2026-05-05 19:09 | 52.48914 | 13.98152 | 6949 ft | 333 kts | 93° |
| 2026-05-05 19:09 | 52.48311 | 14.01809 | 7260 ft | 335 kts | 119° |
| 2026-05-05 19:10 | 52.46789 | 14.04639 | 7598 ft | 328 kts | 145° |
| 2026-05-05 19:10 | 52.44787 | 14.06169 | 7913 ft | 312 kts | 169° |
| 2026-05-05 19:10 | 52.42686 | 14.06224 | 8234 ft | 297 kts | 191° |
| 2026-05-05 19:10 | 52.40715 | 14.05634 | 8756 ft | 280 kts | 192° |
| 2026-05-05 19:11 | 52.38848 | 14.05082 | 9225 ft | 266 kts | 192° |
| 2026-05-05 19:11 | 52.37039 | 14.04551 | 9556 ft | 259 kts | 191° |
| 2026-05-05 19:11 | 52.35313 | 14.04061 | 10029 ft | 245 kts | 191° |
| 2026-05-05 19:11 | 52.33683 | 14.03624 | 10441 ft | 236 kts | 191° |
| 2026-05-05 19:12 | 52.32085 | 14.03231 | 10831 ft | 230 kts | 190° |
| 2026-05-05 19:12 | 52.30509 | 14.02843 | 11224 ft | 228 kts | 191° |
| 2026-05-05 19:12 | 52.28943 | 14.02471 | 11625 ft | 226 kts | 190° |
| 2026-05-05 19:12 | 52.27392 | 14.02131 | 12019 ft | 224 kts | 190° |
| 2026-05-05 19:13 | 52.25856 | 14.01750 | 12406 ft | 222 kts | 191° |
| 2026-05-05 19:13 | 52.24314 | 14.01370 | 12813 ft | 227 kts | 191° |
| 2026-05-05 19:13 | 52.22745 | 14.00995 | 13263 ft | 237 kts | 191° |
| 2026-05-05 19:13 | 52.21082 | 14.00640 | 13746 ft | 246 kts | 191° |
| 2026-05-05 19:14 | 52.19358 | 14.00251 | 14235 ft | 254 kts | 191° |
| 2026-05-05 19:14 | 52.17597 | 13.99842 | 14760 ft | 264 kts | 190° |
| 2026-05-05 19:14 | 52.15750 | 13.99435 | 15351 ft | 271 kts | 191° |
| 2026-05-05 19:14 | 52.13848 | 13.98970 | 15822 ft | 284 kts | 190° |
| 2026-05-05 19:15 | 52.11779 | 13.98519 | 15812 ft | 313 kts | 189° |
| 2026-05-05 19:15 | 52.09535 | 13.98003 | 15832 ft | 338 kts | 191° |
| 2026-05-05 19:15 | 52.07133 | 13.97370 | 15826 ft | 361 kts | 191° |
| 2026-05-05 19:15 | 52.04589 | 13.96685 | 15822 ft | 378 kts | 191° |
| 2026-05-05 19:16 | 52.01942 | 13.95968 | 15816 ft | 392 kts | 191° |
| 2026-05-05 19:16 | 51.99213 | 13.95226 | 15814 ft | 401 kts | 191° |
| 2026-05-05 19:16 | 51.96437 | 13.94470 | 15814 ft | 408 kts | 191° |
| 2026-05-05 19:16 | 51.93611 | 13.93698 | 15804 ft | 413 kts | 191° |
| 2026-05-05 19:17 | 51.90771 | 13.92903 | 15810 ft | 417 kts | 191° |
| 2026-05-05 19:17 | 51.87905 | 13.92088 | 15810 ft | 419 kts | 191° |
| 2026-05-05 19:17 | 51.85030 | 13.91270 | 15809 ft | 419 kts | 191° |
| 2026-05-05 19:17 | 51.82160 | 13.90453 | 15810 ft | 418 kts | 191° |
| 2026-05-05 19:18 | 51.79325 | 13.89649 | 15807 ft | 418 kts | 191° |
| 2026-05-05 19:18 | 51.76458 | 13.88837 | 15807 ft | 418 kts | 191° |
| 2026-05-05 19:18 | 51.73593 | 13.88027 | 15804 ft | 418 kts | 191° |
| 2026-05-05 19:18 | 51.70724 | 13.87216 | 15804 ft | 418 kts | 191° |
| 2026-05-05 19:19 | 51.67857 | 13.86397 | 15807 ft | 418 kts | 191° |
| 2026-05-05 19:19 | 51.64988 | 13.85566 | 15807 ft | 419 kts | 191° |
| 2026-05-05 19:19 | 51.62120 | 13.84735 | 15807 ft | 419 kts | 191° |
| 2026-05-05 19:19 | 51.59244 | 13.83903 | 15807 ft | 419 kts | 191° |
| 2026-05-05 19:20 | 51.56377 | 13.83074 | 15809 ft | 419 kts | 191° |
| 2026-05-05 19:20 | 51.53497 | 13.82242 | 15874 ft | 420 kts | 191° |
| 2026-05-05 19:20 | 51.50622 | 13.81485 | 15975 ft | 420 kts | 188° |
| 2026-05-05 19:20 | 51.47704 | 13.81172 | 16050 ft | 421 kts | 181° |
| 2026-05-05 19:21 | 51.44784 | 13.81497 | 16145 ft | 421 kts | 173° |
| 2026-05-05 19:21 | 51.41918 | 13.82485 | 16215 ft | 422 kts | 167° |
| 2026-05-05 19:21 | 51.39017 | 13.83224 | 16239 ft | 421 kts | 178° |
| 2026-05-05 19:21 | 51.36094 | 13.83027 | 16296 ft | 420 kts | 187° |
| 2026-05-05 19:22 | 51.33226 | 13.82413 | 16334 ft | 421 kts | 189° |
| 2026-05-05 19:22 | 51.30329 | 13.81741 | 16381 ft | 421 kts | 189° |
| 2026-05-05 19:22 | 51.27429 | 13.81022 | 16412 ft | 421 kts | 189° |
| 2026-05-05 19:22 | 51.24531 | 13.80266 | 16440 ft | 421 kts | 190° |
| 2026-05-05 19:23 | 51.21639 | 13.79507 | 16462 ft | 422 kts | 190° |
| 2026-05-05 19:23 | 51.18738 | 13.78736 | 16495 ft | 422 kts | 190° |
| 2026-05-05 19:23 | 51.15838 | 13.77964 | 16517 ft | 422 kts | 190° |
| 2026-05-05 19:23 | 51.12932 | 13.77192 | 16547 ft | 422 kts | 190° |
| 2026-05-05 19:24 | 51.10032 | 13.76423 | 16575 ft | 423 kts | 190° |
| 2026-05-05 19:24 | 51.07126 | 13.75653 | 16608 ft | 423 kts | 190° |
| 2026-05-05 19:24 | 51.04263 | 13.74896 | 16626 ft | 423 kts | 190° |
| 2026-05-05 19:24 | 51.01359 | 13.74129 | 16650 ft | 423 kts | 190° |
| 2026-05-05 19:25 | 50.98455 | 13.73290 | 16661 ft | 423 kts | 192° |
| 2026-05-05 19:25 | 50.95584 | 13.72281 | 16690 ft | 423 kts | 193° |
| 2026-05-05 19:25 | 50.92708 | 13.71241 | 16711 ft | 423 kts | 193° |
| 2026-05-05 19:25 | 50.89832 | 13.70200 | 16722 ft | 423 kts | 193° |
| 2026-05-05 19:26 | 50.86968 | 13.69095 | 16740 ft | 423 kts | 195° |
| 2026-05-05 19:26 | 50.84144 | 13.67789 | 16750 ft | 424 kts | 197° |
| 2026-05-05 19:26 | 50.81327 | 13.66428 | 16938 ft | 418 kts | 197° |
| 2026-05-05 19:26 | 50.78594 | 13.65089 | 17791 ft | 402 kts | 197° |
| 2026-05-05 19:27 | 50.75976 | 13.63796 | 18740 ft | 387 kts | 197° |
| 2026-05-05 19:27 | 50.73475 | 13.62565 | 19672 ft | 375 kts | 197° |
| 2026-05-05 19:27 | 50.71013 | 13.61383 | 20630 ft | 365 kts | 197° |
| 2026-05-05 19:27 | 50.68599 | 13.60266 | 21595 ft | 357 kts | 197° |
| 2026-05-05 19:28 | 50.66230 | 13.59215 | 22512 ft | 354 kts | 196° |
| 2026-05-05 19:28 | 50.63818 | 13.58179 | 22852 ft | 366 kts | 196° |
| 2026-05-05 19:28 | 50.61303 | 13.57069 | 22826 ft | 385 kts | 197° |
| 2026-05-05 19:28 | 50.58665 | 13.55890 | 22765 ft | 402 kts | 197° |
| 2026-05-05 19:29 | 50.55929 | 13.54667 | 22766 ft | 415 kts | 197° |
| 2026-05-05 19:29 | 50.54072 | 13.53836 | 22752 ft | 422 kts | 197° |
| 2026-05-05 19:29 | 50.51227 | 13.52552 | 22754 ft | 429 kts | 197° |
| 2026-05-05 19:29 | 50.48334 | 13.51243 | 22761 ft | 436 kts | 197° |
| 2026-05-05 19:30 | 50.45406 | 13.49893 | 22760 ft | 441 kts | 197° |
| 2026-05-05 19:30 | 50.42464 | 13.48478 | 22762 ft | 445 kts | 198° |
| 2026-05-05 19:30 | 50.39490 | 13.47042 | 22759 ft | 449 kts | 198° |
| 2026-05-05 19:30 | 50.36492 | 13.45595 | 22760 ft | 452 kts | 198° |
| 2026-05-05 19:31 | 50.33475 | 13.44139 | 22757 ft | 454 kts | 198° |
| 2026-05-05 19:31 | 50.30471 | 13.42589 | 22756 ft | 454 kts | 200° |
| 2026-05-05 19:31 | 50.27572 | 13.41011 | 22757 ft | 454 kts | 198° |
| 2026-05-05 19:31 | 50.24565 | 13.39533 | 22754 ft | 454 kts | 198° |
| 2026-05-05 19:32 | 50.21545 | 13.38078 | 22756 ft | 454 kts | 198° |
| 2026-05-05 19:32 | 50.18563 | 13.36646 | 22760 ft | 454 kts | 198° |
| 2026-05-05 19:32 | 50.15548 | 13.35199 | 22759 ft | 454 kts | 198° |
| 2026-05-05 19:32 | 50.12531 | 13.33754 | 22759 ft | 454 kts | 198° |
| 2026-05-05 19:33 | 50.09507 | 13.32302 | 22762 ft | 455 kts | 197° |
| 2026-05-05 19:33 | 50.06474 | 13.30826 | 22763 ft | 458 kts | 198° |
| 2026-05-05 19:33 | 50.03431 | 13.29341 | 22765 ft | 459 kts | 198° |
| 2026-05-05 19:33 | 50.00379 | 13.27852 | 22768 ft | 459 kts | 198° |
| 2026-05-05 19:34 | 49.97322 | 13.26362 | 22769 ft | 460 kts | 198° |
| 2026-05-05 19:34 | 49.94270 | 13.24875 | 22766 ft | 460 kts | 198° |
| 2026-05-05 19:34 | 49.91212 | 13.23388 | 22772 ft | 460 kts | 198° |
| 2026-05-05 19:35 | 49.85120 | 13.20389 | 22772 ft | 458 kts | 198° |
| 2026-05-05 19:35 | 49.82127 | 13.18885 | 22775 ft | 458 kts | 198° |
| 2026-05-05 19:35 | 49.79097 | 13.17363 | 22775 ft | 458 kts | 198° |
| 2026-05-05 19:35 | 49.76067 | 13.15842 | 22774 ft | 457 kts | 198° |
| 2026-05-05 19:36 | 49.73031 | 13.14319 | 22776 ft | 457 kts | 198° |
| 2026-05-05 19:36 | 49.70005 | 13.12803 | 22773 ft | 457 kts | 198° |
| 2026-05-05 19:36 | 49.66977 | 13.11287 | 22784 ft | 457 kts | 197° |
| 2026-05-05 19:36 | 49.63948 | 13.09753 | 22777 ft | 457 kts | 198° |
| 2026-05-05 19:37 | 49.60933 | 13.08219 | 22779 ft | 456 kts | 198° |
| 2026-05-05 19:37 | 49.57916 | 13.06685 | 22782 ft | 456 kts | 198° |
| 2026-05-05 19:37 | 49.54900 | 13.05152 | 22782 ft | 456 kts | 198° |
| 2026-05-05 19:37 | 49.51889 | 13.03624 | 22783 ft | 456 kts | 198° |
| 2026-05-05 19:38 | 49.48907 | 13.02113 | 22785 ft | 456 kts | 198° |
| 2026-05-05 19:38 | 49.45891 | 13.00585 | 22787 ft | 456 kts | 198° |
| 2026-05-05 19:38 | 49.42877 | 12.99065 | 22785 ft | 456 kts | 198° |
| 2026-05-05 19:38 | 49.39862 | 12.97550 | 22788 ft | 456 kts | 197° |
| 2026-05-05 19:39 | 49.36851 | 12.96039 | 22791 ft | 455 kts | 197° |
| 2026-05-05 19:39 | 49.33831 | 12.94522 | 22791 ft | 456 kts | 197° |
| 2026-05-05 19:39 | 49.30813 | 12.93009 | 22790 ft | 456 kts | 197° |
| 2026-05-05 19:39 | 49.27811 | 12.91437 | 22791 ft | 456 kts | 200° |
| 2026-05-05 19:40 | 49.24897 | 12.89540 | 22789 ft | 456 kts | 204° |
| 2026-05-05 19:40 | 49.22035 | 12.87424 | 22793 ft | 456 kts | 205° |
| 2026-05-05 19:40 | 49.19183 | 12.85283 | 22794 ft | 455 kts | 205° |